Terminal Aerodrome Forecast
Issued by NWS Albany, NY

Home | Current Version | Previous Version | Text Only | Print | Product List | Glossary On
Versions: 1 2 3 4 5 6 7 8 9 10 11 12 13 14 15 16 17 18 19 20 21 22 23 24 25 26
870
FTUS41 KALY 202333
TAFPOU
TAF
KPOU 202333Z 2100/2124 VRB03KT P6SM OVC025
      TEMPO 2100/2103 6SM -RA BR OVC015
     FM210300 VRB03KT 4SM BR SCT007 OVC015
     FM210900 VRB03KT P6SM OVC025
     FM211600 26003KT P6SM BKN025 OVC050=

USA.gov is the U.S. government's official web portal to all federal, state and local government web resources and services.